Time;durP1;ratioP1;P1;durP2;ratioP2;P2;SDS_P1;SDS_P2;PMS_P1;PMS_P2;Temp;Humidity;BMP_temperature;BMP_pressure;BME280_temperature;BME280_humidity;BME280_pressure;Samples;Min_cycle;Max_cycle;Signal;HPM_P1;HPM_P2
2022/12/05 00:00:53;;;;;;;30.40;18.85;;;5.00;99.90;;;;;;5114109;28;20040;-63
2022/12/05 00:03:19;;;;;;;33.22;19.38;;;5.00;99.90;;;;;;5113882;28;20058;-63
2022/12/05 00:05:45;;;;;;;32.20;18.42;;;5.00;99.90;;;;;;5114028;28;20031;-63
2022/12/05 00:08:10;;;;;;;32.13;18.27;;;5.00;99.90;;;;;;5113749;28;20039;-64
2022/12/05 00:10:37;;;;;;;26.90;17.38;;;5.00;99.90;;;;;;5113648;28;20042;-63
2022/12/05 00:13:03;;;;;;;31.40;17.42;;;5.00;99.90;;;;;;5113554;28;20040;-63
2022/12/05 00:15:29;;;;;;;28.88;18.08;;;5.00;99.90;;;;;;5113704;28;20047;-63
2022/12/05 00:17:54;;;;;;;32.08;19.08;;;5.10;99.90;;;;;;5113448;28;20035;-63
2022/12/05 00:20:20;;;;;;;28.00;17.75;;;5.00;99.90;;;;;;5113516;28;20119;-63
2022/12/05 00:22:46;;;;;;;30.35;18.98;;;5.10;99.90;;;;;;5113526;28;20040;-63
2022/12/05 00:25:12;;;;;;;30.40;17.95;;;5.10;99.90;;;;;;5113801;28;20043;-63
2022/12/05 00:27:38;;;;;;;30.42;18.45;;;5.10;99.90;;;;;;5113717;28;20110;-63
2022/12/05 00:30:05;;;;;;;32.20;19.02;;;5.20;99.90;;;;;;5113551;28;20046;-63
2022/12/05 00:32:31;;;;;;;29.60;18.05;;;5.10;99.90;;;;;;5113123;28;20527;-64
2022/12/05 00:34:57;;;;;;;31.90;19.48;;;5.10;99.90;;;;;;5113467;28;20038;-64
2022/12/05 00:37:23;;;;;;;30.00;18.60;;;5.10;99.90;;;;;;5113510;28;20383;-63
2022/12/05 00:39:48;;;;;;;31.35;19.88;;;5.20;99.90;;;;;;5113014;28;20122;-63
2022/12/05 00:42:14;;;;;;;30.45;19.73;;;5.20;99.90;;;;;;5112714;28;20493;-63
2022/12/05 00:44:40;;;;;;;32.00;18.80;;;5.20;99.90;;;;;;5112626;28;20059;-63
2022/12/05 00:47:05;;;;;;;31.60;19.50;;;5.20;99.90;;;;;;5113081;28;20061;-64
2022/12/05 00:49:31;;;;;;;35.83;21.70;;;5.20;99.90;;;;;;5112847;28;20119;-63
2022/12/05 00:51:57;;;;;;;37.38;21.75;;;5.20;99.90;;;;;;5094662;28;20047;-63
2022/12/05 00:54:22;;;;;;;36.70;22.02;;;5.20;99.90;;;;;;5113085;28;20063;-64
2022/12/05 00:56:51;;;;;;;34.50;20.90;;;5.20;99.90;;;;;;5113055;28;20036;-63
2022/12/05 00:59:18;;;;;;;35.20;22.00;;;5.20;99.90;;;;;;5112577;28;20490;-63
2022/12/05 01:01:45;;;;;;;35.42;20.48;;;5.20;99.90;;;;;;5112927;28;20428;-64
2022/12/05 01:04:18;;;;;;;37.55;22.40;;;5.30;99.90;;;;;;5112813;28;20446;-63
2022/12/05 01:06:44;;;;;;;35.67;21.05;;;5.30;99.90;;;;;;5112697;28;20039;-63
2022/12/05 01:09:16;;;;;;;33.45;20.85;;;5.30;99.90;;;;;;5112536;28;20574;-63
2022/12/05 01:11:42;;;;;;;39.20;21.17;;;5.30;99.90;;;;;;5112762;28;20048;-63
2022/12/05 01:14:10;;;;;;;35.22;20.00;;;5.30;99.90;;;;;;5112836;28;20028;-63
2022/12/05 01:16:37;;;;;;;35.10;20.75;;;5.30;99.90;;;;;;5112982;28;20114;-63
2022/12/05 01:19:06;;;;;;;30.88;19.45;;;5.30;99.90;;;;;;5112674;28;20039;-63
2022/12/05 01:21:32;;;;;;;31.60;20.02;;;5.30;99.90;;;;;;5112806;28;20036;-64
2022/12/05 01:23:58;;;;;;;31.55;19.23;;;5.40;99.90;;;;;;5112718;28;20354;-64
2022/12/05 01:26:23;;;;;;;32.47;19.85;;;5.40;99.90;;;;;;5112943;28;20493;-63
2022/12/05 01:28:50;;;;;;;27.83;18.48;;;5.30;99.90;;;;;;5112649;28;20388;-63
2022/12/05 01:31:32;;;;;;;30.88;18.42;;;5.30;99.90;;;;;;5112453;28;20042;-64
2022/12/05 01:34:01;;;;;;;26.00;16.73;;;5.40;99.90;;;;;;5112487;28;20040;-63
2022/12/05 01:36:28;;;;;;;29.02;15.80;;;5.40;99.90;;;;;;5112309;28;20095;-63
2022/12/05 01:38:54;;;;;;;24.92;16.20;;;5.40;99.90;;;;;;5112356;28;20082;-64
2022/12/05 01:41:24;;;;;;;23.30;15.75;;;5.40;99.90;;;;;;5112372;28;20085;-63
2022/12/05 01:44:27;;;;;;;24.33;15.13;;;5.40;99.90;;;;;;5112121;28;20087;-63
2022/12/05 01:46:54;;;;;;;23.98;15.38;;;5.50;99.90;;;;;;5112131;28;20052;-63
2022/12/05 01:49:35;;;;;;;22.00;13.75;;;5.50;99.90;;;;;;5112368;28;20042;-64
2022/12/05 01:52:22;;;;;;;25.30;14.10;;;5.50;99.90;;;;;;5112201;28;20039;-64
2022/12/05 01:54:53;;;;;;;19.60;13.00;;;5.60;99.90;;;;;;5114431;28;20366;-63
2022/12/05 01:57:19;;;;;;;20.27;12.85;;;5.60;99.90;;;;;;5116279;28;20168;-64
2022/12/05 01:59:49;;;;;;;19.02;12.90;;;5.60;99.90;;;;;;5116232;28;20149;-64
2022/12/05 02:02:15;;;;;;;18.63;12.48;;;5.60;99.90;;;;;;5116382;28;20108;-64
2022/12/05 02:05:16;;;;;;;18.00;12.48;;;5.70;99.90;;;;;;5116259;28;20043;-64
2022/12/05 02:07:42;;;;;;;18.10;11.77;;;5.60;99.90;;;;;;5013569;28;20112;-63
2022/12/05 02:10:08;;;;;;;18.65;12.18;;;5.70;99.90;;;;;;5013412;28;20507;-64
2022/12/05 02:12:35;;;;;;;17.45;12.15;;;5.60;99.90;;;;;;5013419;28;20048;-63
2022/12/05 02:15:06;;;;;;;17.80;11.65;;;5.70;99.90;;;;;;5013387;28;20113;-63
2022/12/05 02:17:55;;;;;;;17.20;11.70;;;5.70;99.90;;;;;;5013624;28;20086;-64
2022/12/05 02:20:37;;;;;;;18.27;11.85;;;5.70;99.90;;;;;;5013689;28;20112;-63
2022/12/05 02:23:19;;;;;;;18.42;11.43;;;5.70;99.90;;;;;;5013280;28;20107;-63
2022/12/05 02:25:58;;;;;;;17.40;10.27;;;5.60;99.90;;;;;;5013226;28;20096;-64
2022/12/05 02:28:42;;;;;;;15.75;11.27;;;5.70;99.90;;;;;;5013283;28;20837;-64
2022/12/05 02:31:36;;;;;;;17.60;9.68;;;5.60;99.90;;;;;;5012984;28;20566;-64
2022/12/05 02:34:10;;;;;;;14.13;10.43;;;5.70;99.90;;;;;;4954733;29;20051;-64
2022/12/05 02:36:54;;;;;;;19.35;10.25;;;5.70;99.90;;;;;;4954632;29;20438;-63
2022/12/05 02:39:31;;;;;;;16.02;11.30;;;5.70;99.90;;;;;;4954696;29;20524;-65
2022/12/05 02:42:14;;;;;;;15.65;11.02;;;5.60;99.90;;;;;;4954659;29;20043;-63
2022/12/05 02:44:49;;;;;;;14.25;10.35;;;5.60;99.90;;;;;;5052465;28;20060;-63
2022/12/05 02:47:20;;;;;;;14.80;10.32;;;5.70;99.90;;;;;;5052593;28;20081;-65
2022/12/05 02:49:47;;;;;;;13.40;9.88;;;5.60;99.90;;;;;;5052513;28;20041;-64
2022/12/05 02:52:15;;;;;;;13.43;9.80;;;5.60;99.90;;;;;;5052319;28;20045;-63
2022/12/05 02:54:44;;;;;;;19.40;9.68;;;5.60;99.90;;;;;;5052380;28;20479;-64
2022/12/05 02:57:12;;;;;;;16.52;9.88;;;5.60;99.90;;;;;;5051936;28;20056;-64
2022/12/05 02:59:38;;;;;;;18.05;9.48;;;5.60;99.90;;;;;;5052337;28;20041;-64
2022/12/05 03:02:04;;;;;;;15.05;9.80;;;5.60;99.90;;;;;;5052117;28;20047;-63
2022/12/05 03:04:30;;;;;;;13.38;8.80;;;5.60;99.90;;;;;;5052194;28;20408;-63
2022/12/05 03:07:02;;;;;;;13.75;9.18;;;5.60;99.90;;;;;;5050824;28;20041;-63
2022/12/05 03:09:32;;;;;;;10.63;8.32;;;5.60;99.90;;;;;;5052090;28;20192;-64
2022/12/05 03:12:13;;;;;;;12.80;8.57;;;5.50;99.90;;;;;;5110298;28;20047;-64
2022/12/05 03:15:03;;;;;;;12.73;8.57;;;5.60;99.90;;;;;;5114906;28;20046;-63
2022/12/05 03:17:34;;;;;;;13.30;8.83;;;5.50;99.90;;;;;;5114755;28;20120;-64
2022/12/05 03:20:08;;;;;;;13.32;9.30;;;5.60;99.90;;;;;;5114518;28;20313;-63
2022/12/05 03:22:39;;;;;;;12.68;8.85;;;5.60;99.90;;;;;;5114698;28;20385;-63
2022/12/05 03:25:06;;;;;;;16.38;9.20;;;5.50;99.90;;;;;;5115035;28;20795;-64
2022/12/05 03:28:01;;;;;;;13.65;8.32;;;5.60;99.90;;;;;;5114962;28;20043;-64
2022/12/05 03:30:28;;;;;;;12.27;8.40;;;5.60;99.90;;;;;;5114416;28;20095;-64
2022/12/05 03:33:22;;;;;;;11.80;8.95;;;5.50;99.90;;;;;;5114195;28;20039;-64
2022/12/05 03:36:15;;;;;;;12.73;8.65;;;5.60;99.90;;;;;;5095463;28;20490;-63
2022/12/05 03:39:23;;;;;;;14.15;9.45;;;5.50;99.90;;;;;;5114251;28;20039;-64
2022/12/05 03:41:56;;;;;;;16.23;9.20;;;5.60;99.90;;;;;;5109265;28;20557;-63
2022/12/05 03:44:35;;;;;;;13.60;9.63;;;5.50;99.90;;;;;;5114096;28;20112;-64
2022/12/05 03:47:11;;;;;;;14.70;8.40;;;5.50;99.90;;;;;;5114253;28;20100;-64
2022/12/05 03:49:49;;;;;;;11.00;8.07;;;5.60;99.90;;;;;;5095715;28;20059;-64
2022/12/05 03:52:21;;;;;;;15.57;9.45;;;5.50;99.90;;;;;;5114057;28;20044;-64
2022/12/05 03:54:52;;;;;;;11.23;8.23;;;5.60;99.90;;;;;;5113964;28;20082;-63
2022/12/05 03:57:31;;;;;;;14.18;9.30;;;5.60;99.90;;;;;;5114095;28;20040;-64
2022/12/05 04:00:10;;;;;;;14.73;9.63;;;5.50;99.90;;;;;;5113898;28;20040;-64
2022/12/05 04:02:45;;;;;;;12.57;9.38;;;5.50;99.90;;;;;;5113861;28;20039;-64
2022/12/05 04:05:25;;;;;;;18.70;9.38;;;5.50;99.90;;;;;;5095050;28;20048;-65
2022/12/05 04:07:57;;;;;;;17.88;9.10;;;5.40;99.90;;;;;;5113895;28;20036;-64
2022/12/05 04:10:27;;;;;;;18.80;10.07;;;5.40;99.90;;;;;;5113972;28;20042;-64
2022/12/05 04:12:57;;;;;;;16.60;9.80;;;5.50;99.90;;;;;;5113758;28;20036;-64
2022/12/05 04:17:02;;;;;;;15.15;9.82;;;5.80;99.90;;;;;;5113607;28;20039;-64
2022/12/05 04:18:17;;;;;;;16.92;9.70;;;5.50;99.90;;;;;;5112792;28;20502;-65
2022/12/05 04:23:28;;;;;;;17.60;10.27;;;5.50;99.90;;;;;;5113454;28;20081;-64
2022/12/05 04:26:22;;;;;;;14.05;9.57;;;5.40;99.90;;;;;;5095475;28;20442;-64
2022/12/05 04:28:56;;;;;;;18.40;9.93;;;5.50;99.90;;;;;;5113450;28;20036;-64
2022/12/05 04:31:23;;;;;;;20.25;10.30;;;5.40;99.90;;;;;;5113066;28;20371;-64
2022/12/05 04:33:55;;;;;;;18.38;9.57;;;5.50;99.90;;;;;;5113291;28;20078;-64
2022/12/05 04:36:31;;;;;;;17.58;11.00;;;5.60;99.90;;;;;;5113285;28;20038;-64
2022/12/05 04:39:02;;;;;;;17.45;9.27;;;5.40;99.90;;;;;;5113351;28;20044;-64
2022/12/05 04:41:32;;;;;;;16.85;9.98;;;5.50;99.90;;;;;;5113034;28;20491;-64
2022/12/05 04:44:04;;;;;;;17.08;8.77;;;5.50;99.90;;;;;;5112832;28;20062;-64
2022/12/05 04:46:30;;;;;;;17.95;9.65;;;5.50;99.90;;;;;;5113252;28;20100;-64
2022/12/05 04:49:01;;;;;;;15.13;9.35;;;5.40;99.90;;;;;;5094242;28;20452;-65
2022/12/05 04:51:31;;;;;;;14.93;9.77;;;5.50;99.90;;;;;;5112802;28;20039;-64
2022/12/05 04:54:03;;;;;;;17.52;9.93;;;5.40;99.90;;;;;;5112831;28;20036;-64
2022/12/05 04:56:36;;;;;;;14.57;9.05;;;5.60;99.90;;;;;;5094963;28;20593;-65
2022/12/05 04:59:02;;;;;;;14.85;9.52;;;5.60;99.90;;;;;;5112869;28;20044;-65
2022/12/05 05:01:46;;;;;;;15.88;9.63;;;5.50;99.90;;;;;;5112662;28;20378;-65
2022/12/05 05:04:20;;;;;;;12.95;8.95;;;5.50;99.90;;;;;;5112582;28;20039;-64
2022/12/05 05:06:46;;;;;;;14.57;9.30;;;5.60;99.90;;;;;;5112526;28;20417;-65
2022/12/05 05:09:11;;;;;;;15.57;9.18;;;5.50;99.90;;;;;;5112776;28;20046;-64
2022/12/05 05:11:37;;;;;;;14.18;8.90;;;5.60;99.90;;;;;;5112607;28;20367;-64
2022/12/05 05:14:03;;;;;;;15.55;9.20;;;5.60;99.90;;;;;;5112702;28;20070;-64
2022/12/05 05:16:38;;;;;;;14.75;9.13;;;5.90;99.90;;;;;;5112520;28;20043;-65
2022/12/05 05:19:05;;;;;;;14.95;9.70;;;5.60;99.90;;;;;;5112361;28;20505;-64
2022/12/05 05:21:38;;;;;;;13.85;8.93;;;5.50;99.90;;;;;;5094204;28;20080;-64
2022/12/05 05:24:05;;;;;;;13.10;9.32;;;5.50;99.90;;;;;;5112857;28;20071;-64
2022/12/05 05:26:35;;;;;;;12.52;8.93;;;5.60;99.90;;;;;;5112797;28;20140;-65
2022/12/05 05:29:01;;;;;;;15.57;9.70;;;5.50;99.90;;;;;;5111546;28;20071;-64
2022/12/05 05:31:27;;;;;;;12.65;8.35;;;5.60;99.90;;;;;;5112391;28;20075;-64
2022/12/05 05:33:54;;;;;;;18.67;8.80;;;5.50;99.90;;;;;;5112539;28;20048;-65
2022/12/05 05:36:21;;;;;;;13.02;8.73;;;5.50;99.90;;;;;;5094572;28;20158;-65
2022/12/05 05:38:49;;;;;;;13.27;8.38;;;5.50;99.90;;;;;;5112394;28;20889;-65
2022/12/05 05:41:15;;;;;;;17.95;9.35;;;5.50;99.90;;;;;;5112128;28;20069;-65
2022/12/05 05:43:41;;;;;;;12.90;9.07;;;5.50;99.90;;;;;;5112313;28;20064;-65
2022/12/05 05:46:07;;;;;;;16.20;9.13;;;5.40;99.90;;;;;;5112208;28;20050;-64
2022/12/05 05:48:32;;;;;;;15.77;9.18;;;5.60;99.90;;;;;;5094185;28;20405;-65
2022/12/05 05:50:59;;;;;;;13.90;8.80;;;5.60;99.90;;;;;;5111570;28;20046;-65
2022/12/05 05:53:24;;;;;;;14.18;8.77;;;5.50;99.90;;;;;;5112054;28;20107;-65
2022/12/05 05:55:50;;;;;;;13.80;9.43;;;5.60;99.90;;;;;;5112108;28;20561;-64
2022/12/05 05:58:16;;;;;;;14.10;8.18;;;5.40;99.90;;;;;;5111962;28;20035;-64
2022/12/05 06:00:41;;;;;;;13.63;8.73;;;5.60;99.90;;;;;;5111901;28;20036;-65
2022/12/05 06:03:07;;;;;;;12.00;8.02;;;5.50;99.90;;;;;;5110883;28;20039;-64
2022/12/05 06:05:33;;;;;;;16.63;9.07;;;5.60;99.90;;;;;;5109886;28;20035;-64
2022/12/05 06:07:58;;;;;;;14.77;8.80;;;5.50;99.90;;;;;;5110223;28;20042;-64
2022/12/05 06:10:24;;;;;;;16.48;9.13;;;5.60;99.90;;;;;;5110650;28;20084;-65
2022/12/05 06:12:49;;;;;;;13.02;8.80;;;5.70;99.90;;;;;;5111792;28;20048;-64
2022/12/05 06:15:15;;;;;;;16.30;8.88;;;5.50;99.90;;;;;;5111801;28;20490;-65
2022/12/05 06:17:41;;;;;;;16.75;8.90;;;5.50;99.90;;;;;;5093811;28;20051;-65
2022/12/05 06:20:08;;;;;;;14.82;9.23;;;5.60;99.90;;;;;;5112191;28;20031;-64
2022/12/05 06:22:34;;;;;;;15.30;9.02;;;5.60;99.90;;;;;;5111999;28;20115;-64
2022/12/05 06:24:59;;;;;;;13.20;7.95;;;5.60;99.90;;;;;;5094173;28;20054;-65
2022/12/05 06:27:27;;;;;;;15.60;9.18;;;5.50;99.90;;;;;;5112026;28;20100;-65
2022/12/05 06:29:53;;;;;;;15.98;8.43;;;5.60;99.90;;;;;;5111917;28;20036;-65
2022/12/05 06:32:18;;;;;;;14.68;9.02;;;5.50;99.90;;;;;;5111714;28;20493;-65
2022/12/05 06:34:44;;;;;;;13.68;8.73;;;5.60;99.90;;;;;;5109884;28;20028;-65
2022/12/05 06:37:10;;;;;;;15.13;8.35;;;5.60;99.90;;;;;;5092116;28;20035;-64
2022/12/05 06:39:35;;;;;;;12.98;8.25;;;5.60;99.90;;;;;;5111506;28;20452;-64
2022/12/05 06:42:01;;;;;;;16.30;8.50;;;5.50;99.90;;;;;;5115465;28;20036;-65
2022/12/05 06:44:27;;;;;;;12.65;8.13;;;5.50;99.90;;;;;;5115102;28;20130;-65
2022/12/05 06:46:53;;;;;;;15.55;9.00;;;5.50;99.90;;;;;;5115190;28;20104;-65
2022/12/05 06:49:19;;;;;;;13.70;8.77;;;5.50;99.90;;;;;;5115342;28;20043;-65
2022/12/05 06:51:45;;;;;;;17.58;9.10;;;5.60;99.90;;;;;;5115182;28;20423;-64
2022/12/05 06:54:12;;;;;;;18.20;9.45;;;5.50;99.90;;;;;;5115220;28;20088;-65
2022/12/05 06:56:38;;;;;;;19.48;8.82;;;5.50;99.90;;;;;;5115155;28;20157;-64
2022/12/05 06:59:03;;;;;;;16.33;9.00;;;5.60;99.90;;;;;;5115178;28;20493;-65
2022/12/05 07:01:38;;;;;;;15.23;8.38;;;5.60;99.90;;;;;;5114885;28;20046;-65
2022/12/05 07:04:11;;;;;;;18.52;9.05;;;5.60;99.90;;;;;;5115009;28;20066;-65
2022/12/05 07:06:38;;;;;;;20.50;9.70;;;5.50;99.90;;;;;;5097893;28;20039;-65
2022/12/05 07:09:04;;;;;;;18.85;10.18;;;5.50;99.90;;;;;;5115016;28;20046;-65
2022/12/05 07:11:30;;;;;;;19.73;10.00;;;5.60;99.90;;;;;;5114643;28;20083;-65
2022/12/05 07:13:56;;;;;;;25.70;9.68;;;5.50;99.90;;;;;;5114640;28;20063;-64
2022/12/05 07:16:22;;;;;;;20.73;10.05;;;5.50;99.90;;;;;;5114868;28;20044;-65
2022/12/05 07:18:49;;;;;;;19.73;9.48;;;5.60;99.90;;;;;;5115016;28;20032;-65
2022/12/05 07:21:15;;;;;;;23.02;10.68;;;5.60;99.90;;;;;;5096372;28;20067;-65
2022/12/05 07:23:43;;;;;;;21.88;9.60;;;5.50;99.90;;;;;;5114576;28;20043;-66
2022/12/05 07:26:12;;;;;;;20.10;9.60;;;5.70;99.90;;;;;;5114549;28;20118;-64
2022/12/05 07:28:38;;;;;;;16.02;9.80;;;5.70;99.90;;;;;;5114633;28;20032;-65
2022/12/05 07:31:06;;;;;;;18.55;9.82;;;5.50;99.90;;;;;;5096054;28;20058;-64
2022/12/05 07:33:32;;;;;;;20.03;9.57;;;5.60;99.90;;;;;;5114603;28;20036;-65
2022/12/05 07:36:06;;;;;;;19.27;9.80;;;5.70;99.90;;;;;;5114470;28;20039;-65
2022/12/05 07:38:32;;;;;;;22.70;9.63;;;5.70;99.90;;;;;;5114367;28;20106;-65
2022/12/05 07:40:58;;;;;;;16.98;8.80;;;5.70;99.90;;;;;;5114158;28;20160;-65
2022/12/05 07:43:24;;;;;;;19.23;9.25;;;5.70;99.90;;;;;;5114360;28;20107;-63
2022/12/05 07:45:49;;;;;;;17.52;9.13;;;5.60;99.90;;;;;;5114436;28;20897;-64
2022/12/05 07:48:15;;;;;;;21.88;9.80;;;5.60;99.90;;;;;;5114085;28;20432;-64
2022/12/05 07:50:41;;;;;;;21.73;9.98;;;5.70;99.90;;;;;;5113940;28;20466;-65
2022/12/05 07:53:07;;;;;;;15.77;9.07;;;5.70;99.90;;;;;;5113005;28;20036;-64
2022/12/05 07:55:33;;;;;;;19.13;9.23;;;5.70;99.90;;;;;;5113783;28;20035;-64
2022/12/05 07:57:59;;;;;;;20.20;8.85;;;5.60;99.90;;;;;;5114037;28;20043;-64
2022/12/05 08:00:25;;;;;;;20.35;9.48;;;5.70;99.90;;;;;;5113715;28;20036;-64
2022/12/05 08:02:50;;;;;;;22.33;9.30;;;5.70;99.90;;;;;;5113725;28;20085;-65
2022/12/05 08:05:16;;;;;;;19.50;8.27;;;5.70;99.90;;;;;;5113696;28;20482;-64
2022/12/05 08:07:42;;;;;;;20.88;9.20;;;5.70;99.90;;;;;;5113775;28;20046;-65
2022/12/05 08:10:08;;;;;;;15.73;8.50;;;5.70;99.90;;;;;;5113544;28;20096;-65
2022/12/05 08:12:33;;;;;;;15.82;9.00;;;5.60;99.90;;;;;;5113742;28;20036;-64
2022/12/05 08:14:59;;;;;;;20.42;8.85;;;5.70;99.90;;;;;;5113704;28;20035;-64
2022/12/05 08:17:25;;;;;;;17.05;9.23;;;5.70;99.90;;;;;;5113552;28;20389;-64
2022/12/05 08:19:51;;;;;;;14.55;8.82;;;5.70;99.90;;;;;;5113381;28;20521;-64
2022/12/05 08:22:17;;;;;;;17.55;8.57;;;5.80;99.90;;;;;;5113516;28;20122;-64
2022/12/05 08:24:42;;;;;;;19.23;8.70;;;6.30;99.90;;;;;;5113478;28;20042;-64
2022/12/05 08:27:08;;;;;;;17.27;7.75;;;5.70;99.90;;;;;;5113837;28;20870;-64
2022/12/05 08:29:33;;;;;;;16.85;8.15;;;5.70;99.90;;;;;;5113248;28;20389;-64
2022/12/05 08:31:59;;;;;;;19.27;8.55;;;5.70;99.90;;;;;;5113076;28;20068;-64
2022/12/05 08:34:25;;;;;;;16.45;7.85;;;5.80;99.90;;;;;;5113219;28;20039;-64
2022/12/05 08:36:50;;;;;;;17.02;7.97;;;5.70;99.90;;;;;;5113387;28;20067;-64
2022/12/05 08:39:18;;;;;;;16.02;8.77;;;5.70;99.90;;;;;;5113031;28;20074;-64
2022/12/05 08:41:45;;;;;;;15.93;8.50;;;5.70;99.90;;;;;;5113202;28;20050;-65
2022/12/05 08:44:15;;;;;;;16.55;8.43;;;5.70;99.90;;;;;;5112945;28;20055;-64
2022/12/05 08:46:42;;;;;;;18.73;8.00;;;5.70;99.90;;;;;;5094977;28;20458;-65
2022/12/05 08:49:09;;;;;;;19.33;8.48;;;5.70;99.90;;;;;;5112807;28;20048;-65
2022/12/05 08:51:35;;;;;;;14.98;7.90;;;5.80;99.90;;;;;;5112558;28;20495;-64
2022/12/05 08:54:03;;;;;;;15.82;8.50;;;5.80;99.90;;;;;;5112706;28;20114;-64
2022/12/05 08:56:29;;;;;;;16.00;8.65;;;5.80;99.90;;;;;;5112673;28;20071;-64
2022/12/05 08:58:55;;;;;;;18.88;8.77;;;5.70;99.90;;;;;;5112948;28;20046;-65
2022/12/05 09:01:21;;;;;;;16.80;7.70;;;5.80;99.90;;;;;;5112869;28;20043;-64
2022/12/05 09:03:47;;;;;;;16.08;8.73;;;5.80;99.90;;;;;;5111829;28;20036;-64
2022/12/05 09:06:16;;;;;;;13.57;8.40;;;5.70;99.90;;;;;;5112442;28;20036;-64
2022/12/05 09:08:43;;;;;;;14.23;8.70;;;5.70;99.90;;;;;;5112851;28;20031;-64
2022/12/05 09:11:16;;;;;;;21.35;9.85;;;5.70;99.90;;;;;;5112727;28;20043;-65
2022/12/05 09:13:43;;;;;;;17.02;8.25;;;5.70;99.90;;;;;;5112843;28;20032;-65
2022/12/05 09:16:11;;;;;;;22.38;9.27;;;5.70;99.90;;;;;;5112831;28;20032;-65
2022/12/05 09:18:37;;;;;;;19.53;9.07;;;5.70;99.90;;;;;;5112533;28;20036;-64
2022/12/05 09:21:07;;;;;;;18.00;9.38;;;5.70;99.90;;;;;;5112793;28;20112;-65
2022/12/05 09:23:33;;;;;;;27.58;10.30;;;5.80;99.90;;;;;;5094574;28;20050;-64
2022/12/05 09:26:02;;;;;;;18.38;9.75;;;5.70;99.90;;;;;;5112391;28;20028;-64
2022/12/05 09:28:28;;;;;;;18.60;8.95;;;5.70;99.90;;;;;;5112498;28;20027;-65
2022/12/05 09:31:02;;;;;;;18.95;9.35;;;5.80;99.90;;;;;;5112133;28;20088;-65
2022/12/05 09:33:29;;;;;;;20.35;9.95;;;5.80;99.90;;;;;;5112184;28;20040;-64
2022/12/05 09:35:54;;;;;;;20.90;9.77;;;5.80;99.90;;;;;;5112425;28;20089;-64
2022/12/05 09:38:20;;;;;;;16.10;8.95;;;5.90;99.90;;;;;;5112098;28;20385;-65
2022/12/05 09:41:02;;;;;;;18.30;8.57;;;5.90;99.90;;;;;;5112284;28;20081;-64
2022/12/05 09:43:59;;;;;;;17.77;9.45;;;5.90;99.90;;;;;;5112068;28;20046;-64
2022/12/05 09:46:51;;;;;;;20.25;9.48;;;5.80;99.90;;;;;;5094044;28;20036;-64
2022/12/05 09:49:17;;;;;;;16.95;9.65;;;5.80;99.90;;;;;;5106601;28;20039;-64
2022/12/05 09:51:47;;;;;;;22.35;10.07;;;5.90;99.90;;;;;;5112042;28;20370;-64
2022/12/05 09:54:14;;;;;;;19.15;8.95;;;5.80;99.90;;;;;;5112048;28;20118;-65
2022/12/05 09:56:42;;;;;;;19.95;8.98;;;5.90;99.90;;;;;;5112123;28;20039;-64
2022/12/05 09:59:12;;;;;;;17.67;9.97;;;5.90;99.90;;;;;;5112420;28;20351;-64
2022/12/05 10:01:56;;;;;;;19.13;9.48;;;5.90;99.90;;;;;;5094311;28;20350;-64
2022/12/05 10:04:27;;;;;;;17.95;9.57;;;5.90;99.90;;;;;;5111142;28;20027;-64
2022/12/05 10:07:11;;;;;;;19.90;9.65;;;5.90;99.90;;;;;;5110693;28;20097;-64
2022/12/05 10:10:07;;;;;;;22.58;9.13;;;6.00;99.90;;;;;;5111382;28;20422;-64
2022/12/05 10:13:12;;;;;;;20.17;9.65;;;5.80;99.90;;;;;;5111294;28;20035;-65
2022/12/05 10:15:41;;;;;;;19.45;9.98;;;5.80;99.90;;;;;;5112767;28;20028;-64
2022/12/05 10:18:39;;;;;;;20.05;10.20;;;5.90;99.90;;;;;;5114504;28;20041;-64
2022/12/05 10:21:08;;;;;;;19.38;9.32;;;5.90;99.90;;;;;;4996880;28;20046;-64
2022/12/05 10:23:59;;;;;;;17.40;10.25;;;5.80;99.90;;;;;;5013145;28;20050;-64
2022/12/05 10:26:34;;;;;;;15.77;9.77;;;5.80;99.90;;;;;;5013142;28;20042;-64
2022/12/05 10:29:09;;;;;;;21.55;10.27;;;5.80;99.90;;;;;;5013134;28;20480;-64
2022/12/05 10:31:37;;;;;;;17.80;9.73;;;5.90;99.90;;;;;;4996660;28;20077;-65
2022/12/05 10:34:13;;;;;;;18.63;10.02;;;5.70;99.90;;;;;;5012209;28;20042;-65
2022/12/05 10:36:56;;;;;;;15.20;9.75;;;5.80;99.90;;;;;;5010869;28;20104;-65
2022/12/05 10:39:22;;;;;;;15.73;8.98;;;5.90;99.90;;;;;;5011471;28;20404;-64
2022/12/05 10:41:47;;;;;;;19.40;9.20;;;5.80;99.90;;;;;;5012851;28;20046;-65
2022/12/05 10:44:13;;;;;;;17.05;9.68;;;5.80;99.90;;;;;;5012703;28;20137;-65
2022/12/05 10:46:38;;;;;;;16.27;9.60;;;5.90;99.90;;;;;;5012911;28;20404;-65
2022/12/05 10:49:12;;;;;;;16.80;9.98;;;5.90;99.90;;;;;;5012581;28;20038;-65
2022/12/05 10:51:38;;;;;;;16.65;9.63;;;5.90;99.90;;;;;;5012473;28;20089;-65
2022/12/05 10:54:38;;;;;;;19.98;9.82;;;5.80;99.90;;;;;;5012587;28;20135;-64
2022/12/05 10:57:20;;;;;;;17.35;8.93;;;5.70;99.90;;;;;;4979597;28;20501;-64
2022/12/05 10:59:46;;;;;;;16.65;9.07;;;5.80;99.90;;;;;;5072135;28;20041;-65
2022/12/05 11:02:30;;;;;;;18.13;9.73;;;5.70;99.90;;;;;;5071656;28;20048;-64
2022/12/05 11:04:57;;;;;;;14.68;8.77;;;5.80;99.90;;;;;;5071887;28;20041;-65
2022/12/05 11:07:32;;;;;;;18.67;9.23;;;5.90;99.90;;;;;;5072112;28;20052;-64
2022/12/05 11:10:00;;;;;;;12.90;8.43;;;5.70;99.90;;;;;;5072038;28;20683;-64
2022/12/05 11:12:37;;;;;;;15.48;9.18;;;5.70;99.90;;;;;;5071933;28;20483;-64
2022/12/05 11:15:24;;;;;;;16.77;8.38;;;5.80;99.90;;;;;;5071956;28;20056;-64
2022/12/05 11:17:51;;;;;;;13.82;8.30;;;5.80;99.90;;;;;;5071754;28;20049;-65
2022/12/05 11:20:17;;;;;;;12.75;7.57;;;5.70;99.90;;;;;;5071785;28;20060;-64
2022/12/05 11:22:44;;;;;;;14.25;7.60;;;5.70;99.90;;;;;;5071793;28;20044;-64
2022/12/05 11:25:29;;;;;;;12.55;7.05;;;5.70;99.90;;;;;;5071656;28;20075;-65
2022/12/05 11:27:56;;;;;;;17.27;8.45;;;5.80;99.90;;;;;;5070559;28;20052;-65
2022/12/05 11:30:26;;;;;;;12.73;6.85;;;5.80;99.90;;;;;;5071631;28;20036;-64
2022/12/05 11:33:22;;;;;;;14.32;7.80;;;5.70;99.90;;;;;;5084237;28;20063;-64
2022/12/05 11:35:50;;;;;;;15.52;7.85;;;5.70;99.90;;;;;;5011707;28;20046;-65
2022/12/05 11:38:19;;;;;;;14.98;8.05;;;5.90;99.90;;;;;;5011707;28;20109;-65
2022/12/05 11:41:18;;;;;;;12.55;7.25;;;5.70;99.90;;;;;;5011722;28;20049;-64
2022/12/05 11:44:02;;;;;;;11.98;6.60;;;5.90;99.90;;;;;;5011474;28;20212;-65
2022/12/05 11:46:43;;;;;;;11.50;6.75;;;5.70;99.90;;;;;;5011431;28;20096;-64
2022/12/05 11:50:02;;;;;;;10.98;7.13;;;5.70;99.90;;;;;;5011386;28;20362;-64
2022/12/05 11:52:46;;;;;;;13.05;6.90;;;5.80;99.90;;;;;;4975363;28;20436;-64
2022/12/05 11:55:40;;;;;;;10.25;6.60;;;5.90;99.90;;;;;;4991983;28;20069;-65
2022/12/05 11:58:11;;;;;;;10.95;6.70;;;5.70;99.90;;;;;;4991902;28;20553;-65
2022/12/05 12:00:49;;;;;;;14.30;7.28;;;5.90;99.90;;;;;;4991881;28;20830;-65
2022/12/05 12:03:37;;;;;;;10.25;5.82;;;5.70;99.90;;;;;;4991725;28;20146;-65
2022/12/05 12:06:05;;;;;;;9.18;5.43;;;5.80;99.90;;;;;;4991674;28;20497;-65
2022/12/05 12:08:50;;;;;;;10.27;5.82;;;5.80;99.90;;;;;;4991637;28;20560;-64
2022/12/05 12:11:35;;;;;;;6.80;4.93;;;5.80;99.90;;;;;;4975357;28;20134;-64
2022/12/05 12:14:03;;;;;;;12.60;5.93;;;5.90;99.90;;;;;;5050744;28;20423;-64
2022/12/05 12:16:52;;;;;;;9.93;4.93;;;5.90;99.90;;;;;;5050857;28;20037;-64
2022/12/05 12:19:23;;;;;;;5.82;4.40;;;5.90;99.90;;;;;;5050786;28;20095;-64
2022/12/05 12:21:54;;;;;;;8.43;5.75;;;5.90;99.90;;;;;;5050665;28;20040;-64
2022/12/05 12:24:41;;;;;;;10.05;6.45;;;5.90;99.90;;;;;;5033965;28;20047;-63
2022/12/05 12:27:39;;;;;;;8.15;5.15;;;5.90;99.90;;;;;;5099005;28;20143;-64
2022/12/05 12:30:28;;;;;;;7.72;4.88;;;5.90;99.90;;;;;;5113295;28;20036;-64
2022/12/05 12:33:24;;;;;;;7.70;5.28;;;5.90;99.90;;;;;;5113263;28;20043;-64
2022/12/05 12:36:01;;;;;;;7.35;4.65;;;5.90;99.90;;;;;;5113254;28;20046;-64
2022/12/05 12:38:33;;;;;;;7.15;4.00;;;5.90;99.90;;;;;;5113250;28;20492;-63
2022/12/05 12:41:08;;;;;;;9.18;5.05;;;5.90;99.90;;;;;;5113174;28;20106;-65
2022/12/05 12:44:08;;;;;;;10.70;4.68;;;5.90;99.90;;;;;;5112897;28;20046;-64
2022/12/05 12:46:49;;;;;;;12.73;5.60;;;5.90;99.90;;;;;;5010601;28;20139;-64
2022/12/05 12:49:56;;;;;;;10.02;4.72;;;6.00;99.90;;;;;;5010655;28;20049;-64
2022/12/05 12:52:26;;;;;;;8.48;5.00;;;5.90;99.90;;;;;;5010354;28;20049;-64
2022/12/05 12:55:23;;;;;;;8.77;4.70;;;5.90;99.90;;;;;;5010655;28;20081;-64
2022/12/05 12:57:57;;;;;;;9.15;5.13;;;5.90;99.90;;;;;;5010417;28;20121;-64
2022/12/05 13:00:37;;;;;;;8.57;4.57;;;5.80;99.90;;;;;;5010416;28;20084;-63
2022/12/05 13:03:11;;;;;;;;;;;5.90;99.90;;;;;;5010436;28;20038;-63
2022/12/05 13:06:02;;;;;;;7.93;4.50;;;5.80;99.90;;;;;;5009897;28;20049;-64
2022/12/05 13:08:37;;;;;;;9.27;4.30;;;5.90;99.90;;;;;;4993894;28;20050;-64
2022/12/05 13:11:07;;;;;;;9.32;4.47;;;5.90;99.90;;;;;;5009969;28;20046;-64
2022/12/05 13:13:41;;;;;;;9.32;4.50;;;6.00;99.90;;;;;;5010213;28;20165;-64